createdAt,value
2023-03-13T00:00:33.218Z,2.60
2023-03-13T00:03:03.979Z,2.60
2023-03-13T00:05:37.909Z,2.60
2023-03-13T00:08:08.808Z,2.61
2023-03-13T00:10:40.847Z,2.62
2023-03-13T00:13:11.597Z,2.64
2023-03-13T00:15:42.251Z,2.66
2023-03-13T00:18:13.189Z,2.69
2023-03-13T00:20:43.892Z,2.71
2023-03-13T00:23:14.601Z,2.72
2023-03-13T00:25:45.355Z,2.74
2023-03-13T00:28:16.090Z,2.76
2023-03-13T00:30:46.829Z,2.77
2023-03-13T00:33:17.567Z,2.79
2023-03-13T00:35:48.374Z,2.80
2023-03-13T00:38:19.572Z,2.81
2023-03-13T00:40:50.274Z,2.83
2023-03-13T00:43:21.021Z,2.85
2023-03-13T00:45:51.856Z,2.87
2023-03-13T00:48:22.693Z,2.88
2023-03-13T00:50:53.700Z,2.90
2023-03-13T00:53:24.797Z,2.91
2023-03-13T00:56:00.687Z,2.94
2023-03-13T00:58:34.474Z,2.96
2023-03-13T01:01:12.020Z,2.99
2023-03-13T01:03:44.478Z,3.01
2023-03-13T01:06:17.554Z,3.04
2023-03-13T01:08:48.856Z,3.05
2023-03-13T01:11:23.539Z,3.07
2023-03-13T01:13:57.110Z,3.10
2023-03-13T01:16:30.891Z,3.12
2023-03-13T01:19:03.608Z,3.15
2023-03-13T01:21:34.471Z,3.16
2023-03-13T01:24:05.416Z,3.16
2023-03-13T01:26:36.662Z,3.17
2023-03-13T01:29:07.464Z,3.17
2023-03-13T01:31:38.950Z,3.18
2023-03-13T01:34:12.967Z,3.20
2023-03-13T01:36:43.906Z,3.22
2023-03-13T01:39:15.182Z,3.23
2023-03-13T01:41:45.931Z,3.22
2023-03-13T01:44:25.097Z,3.20
2023-03-13T01:46:57.009Z,3.19
2023-03-13T01:49:33.366Z,3.18
2023-03-13T01:52:09.700Z,3.15
2023-03-13T01:54:51.230Z,3.14
2023-03-13T01:57:27.610Z,3.13
2023-03-13T02:00:01.724Z,3.13
2023-03-13T02:02:33.182Z,3.12
2023-03-13T02:05:08.124Z,3.11
2023-03-13T02:07:42.818Z,3.11
2023-03-13T02:10:18.057Z,3.11
2023-03-13T02:12:48.021Z,3.10
2023-03-13T02:15:22.265Z,3.08
2023-03-13T02:17:54.716Z,3.04
2023-03-13T02:20:26.028Z,3.04
2023-03-13T02:23:02.117Z,3.05
2023-03-13T02:25:43.172Z,3.06
2023-03-13T02:28:17.951Z,3.06
2023-03-13T02:30:52.431Z,3.07
2023-03-13T02:33:27.481Z,3.07
2023-03-13T02:35:58.935Z,3.06
2023-03-13T02:38:32.513Z,3.04
2023-03-13T02:41:06.198Z,3.03
2023-03-13T02:43:38.885Z,3.00
2023-03-13T02:46:13.935Z,2.99
2023-03-13T02:48:49.256Z,2.96
2023-03-13T02:51:24.699Z,2.95
2023-03-13T02:54:00.348Z,2.95
2023-03-13T02:56:35.014Z,2.95
2023-03-13T02:59:08.173Z,2.96
2023-03-13T03:01:40.512Z,2.96
2023-03-13T03:04:11.280Z,2.95
2023-03-13T03:06:42.022Z,2.92
2023-03-13T03:09:12.944Z,2.92
2023-03-13T03:11:44.058Z,2.91
2023-03-13T03:14:16.624Z,2.90
2023-03-13T03:16:49.281Z,2.89
2023-03-13T03:19:20.118Z,2.90
2023-03-13T03:21:51.091Z,2.88
2023-03-13T03:24:22.944Z,2.86
2023-03-13T03:26:53.840Z,2.82
2023-03-13T03:29:29.364Z,2.80
2023-03-13T03:32:00.303Z,2.80
2023-03-13T03:34:31.636Z,2.81
2023-03-13T03:37:03.435Z,2.81
2023-03-13T03:39:34.291Z,2.82
2023-03-13T03:42:05.536Z,2.83
2023-03-13T03:44:36.491Z,2.81
2023-03-13T03:47:07.827Z,2.80
2023-03-13T03:49:41.627Z,2.82
2023-03-13T03:52:13.893Z,2.84
2023-03-13T03:54:45.907Z,2.86
2023-03-13T03:57:17.106Z,2.89
2023-03-13T03:59:48.928Z,2.91
2023-03-13T04:02:20.004Z,2.86
2023-03-13T04:04:51.298Z,2.85
2023-03-13T04:07:26.443Z,2.86
2023-03-13T04:09:57.585Z,2.88
2023-03-13T04:12:38.851Z,2.87
2023-03-13T04:15:11.904Z,2.86
2023-03-13T04:17:42.885Z,2.86
2023-03-13T04:20:16.679Z,2.83
2023-03-13T04:22:47.538Z,2.79
2023-03-13T04:25:19.382Z,2.77
2023-03-13T04:27:52.063Z,2.78
2023-03-13T04:30:24.909Z,2.75
2023-03-13T04:33:22.075Z,2.75
2023-03-13T04:36:18.780Z,2.78
2023-03-13T04:39:16.324Z,2.81
2023-03-13T04:42:16.461Z,2.79
2023-03-13T04:44:58.510Z,2.79
2023-03-13T04:47:48.846Z,2.77
2023-03-13T04:50:34.693Z,2.75
2023-03-13T04:53:27.697Z,2.73
2023-03-13T04:56:42.366Z,2.70
2023-03-13T04:59:29.321Z,2.70
2023-03-13T05:02:02.892Z,2.71
2023-03-13T05:04:57.169Z,2.74
2023-03-13T05:07:35.508Z,2.78
2023-03-13T05:10:23.555Z,2.83
2023-03-13T05:13:27.149Z,2.86
2023-03-13T05:16:21.281Z,2.91
2023-03-13T05:19:18.616Z,2.95
2023-03-13T05:22:05.001Z,2.95
2023-03-13T05:24:54.697Z,2.98
2023-03-13T05:27:54.882Z,2.99
2023-03-13T05:30:37.600Z,2.98
2023-03-13T05:33:32.067Z,2.96
2023-03-13T05:36:21.260Z,2.98
2023-03-13T05:39:03.499Z,2.97
2023-03-13T05:41:49.982Z,2.99
2023-03-13T05:44:36.053Z,3.04
2023-03-13T05:47:39.694Z,3.11
2023-03-13T05:50:22.284Z,3.15
2023-03-13T05:53:13.819Z,3.18
2023-03-13T05:56:05.146Z,3.21
2023-03-13T05:58:51.082Z,3.23
2023-03-13T06:01:41.125Z,3.23
2023-03-13T06:04:17.678Z,3.26
2023-03-13T06:06:50.484Z,3.29
2023-03-13T06:09:22.609Z,3.34
2023-03-13T06:11:53.803Z,3.38
2023-03-13T06:14:24.681Z,3.42
2023-03-13T06:17:22.211Z,3.41
2023-03-13T06:19:52.976Z,3.42
2023-03-13T06:22:23.867Z,3.45
2023-03-13T06:24:54.814Z,3.47
2023-03-13T06:27:25.527Z,3.48
2023-03-13T06:29:56.248Z,3.47
2023-03-13T06:32:30.389Z,3.50
2023-03-13T06:35:01.219Z,3.54
2023-03-13T06:37:32.085Z,3.59
2023-03-13T06:40:05.258Z,3.63
2023-03-13T06:42:36.042Z,3.68
2023-03-13T06:45:09.430Z,3.71
2023-03-13T06:47:40.282Z,3.73
2023-03-13T06:50:12.688Z,3.76
2023-03-13T06:52:44.385Z,3.73
2023-03-13T06:55:15.944Z,3.69
2023-03-13T06:57:50.418Z,3.69
2023-03-13T07:00:23.010Z,3.72
2023-03-13T07:02:55.008Z,3.76
2023-03-13T07:05:26.314Z,3.81
2023-03-13T07:07:57.138Z,3.86
2023-03-13T07:10:27.884Z,3.91
2023-03-13T07:12:58.616Z,3.94
2023-03-13T07:15:29.370Z,3.94
2023-03-13T07:18:01.730Z,3.97
2023-03-13T07:20:34.204Z,4.02
2023-03-13T07:23:05.184Z,4.09
2023-03-13T07:25:35.908Z,4.13
2023-03-13T07:28:06.736Z,4.14
2023-03-13T07:30:37.541Z,4.14
2023-03-13T07:33:08.421Z,4.17
2023-03-13T07:35:40.258Z,4.22
2023-03-13T07:38:12.527Z,4.28
2023-03-13T07:40:48.253Z,4.32
2023-03-13T07:43:19.125Z,4.38
2023-03-13T07:45:57.878Z,4.45
2023-03-13T07:48:32.236Z,4.56
2023-03-13T07:51:03.466Z,4.67
2023-03-13T07:53:36.795Z,4.77
2023-03-13T07:56:11.333Z,4.85
2023-03-13T07:58:43.654Z,4.94
2023-03-13T08:01:16.555Z,4.99
2023-03-13T08:03:50.923Z,5.06
2023-03-13T08:06:24.625Z,5.08
2023-03-13T08:08:58.113Z,5.08
2023-03-13T08:11:30.277Z,5.16
2023-03-13T08:14:01.329Z,5.26
2023-03-13T08:16:34.966Z,5.32
2023-03-13T08:19:09.307Z,5.41
2023-03-13T08:21:41.105Z,5.53
2023-03-13T08:24:13.525Z,5.60
2023-03-13T08:26:45.215Z,5.67
2023-03-13T08:29:19.231Z,5.72
2023-03-13T08:31:52.761Z,5.77
2023-03-13T08:34:23.534Z,5.82
2023-03-13T08:36:54.332Z,5.87
2023-03-13T08:39:26.385Z,5.91
2023-03-13T08:41:57.381Z,5.91
2023-03-13T08:44:28.808Z,5.93
2023-03-13T08:47:00.071Z,5.96
2023-03-13T08:49:31.044Z,5.98
2023-03-13T08:52:02.008Z,6.03
2023-03-13T08:54:32.841Z,6.07
2023-03-13T08:57:03.577Z,6.12
2023-03-13T08:59:34.366Z,6.18
2023-03-13T09:02:06.968Z,6.28
2023-03-13T09:04:38.000Z,6.42
2023-03-13T09:07:08.916Z,6.58
2023-03-13T09:09:39.690Z,6.79
2023-03-13T09:12:24.803Z,7.04
2023-03-13T09:15:02.126Z,7.37
2023-03-13T09:17:33.152Z,7.68
2023-03-13T09:20:05.673Z,7.96
2023-03-13T09:22:36.542Z,8.19
2023-03-13T09:25:08.439Z,8.41
2023-03-13T09:27:39.571Z,8.61
2023-03-13T09:30:14.365Z,8.88
2023-03-13T09:32:46.061Z,9.17
2023-03-13T09:35:17.173Z,9.41
2023-03-13T09:37:49.080Z,9.63
2023-03-13T09:40:23.698Z,9.83
2023-03-13T09:42:57.791Z,9.98
2023-03-13T09:45:34.473Z,10.10
2023-03-13T09:48:13.290Z,10.21
2023-03-13T09:50:48.719Z,10.30
2023-03-13T09:53:28.702Z,10.34
2023-03-13T09:56:00.391Z,10.32
2023-03-13T09:58:35.430Z,10.34
2023-03-13T10:01:08.108Z,10.38
2023-03-13T10:03:59.115Z,10.39
2023-03-13T10:06:42.763Z,10.44
2023-03-13T10:09:27.131Z,10.50
2023-03-13T10:12:07.528Z,10.55
2023-03-13T10:14:46.631Z,10.57
2023-03-13T10:17:29.780Z,10.62
2023-03-13T10:20:10.908Z,10.68
2023-03-13T10:22:43.563Z,10.71
2023-03-13T10:25:28.760Z,10.74
2023-03-13T10:28:00.379Z,10.74
2023-03-13T10:30:35.023Z,10.74
2023-03-13T10:33:24.867Z,10.73
2023-03-13T10:36:11.201Z,10.71
2023-03-13T10:38:54.708Z,10.69
2023-03-13T10:41:34.733Z,10.68
2023-03-13T10:44:08.487Z,10.68
2023-03-13T10:46:47.421Z,10.70
2023-03-13T10:49:23.551Z,10.73
2023-03-13T10:51:56.381Z,10.73
2023-03-13T10:54:29.886Z,10.74
2023-03-13T10:57:32.166Z,10.74
2023-03-13T11:00:23.602Z,10.71
2023-03-13T11:02:56.123Z,10.71
2023-03-13T11:05:39.008Z,10.71
2023-03-13T11:08:25.883Z,10.72
2023-03-13T11:11:02.258Z,10.75
2023-03-13T11:13:38.263Z,10.77
2023-03-13T11:16:22.815Z,10.80
2023-03-13T11:19:09.582Z,10.81
2023-03-13T11:21:48.096Z,10.84
2023-03-13T11:24:28.998Z,10.92
2023-03-13T11:27:08.171Z,11.01
2023-03-13T11:29:49.871Z,11.11
2023-03-13T11:32:30.722Z,11.22
2023-03-13T11:35:08.039Z,11.33
2023-03-13T11:37:42.815Z,11.47
2023-03-13T11:40:22.644Z,11.63
2023-03-13T11:43:25.133Z,11.76
2023-03-13T11:46:21.310Z,11.93
2023-03-13T11:49:21.814Z,12.09
2023-03-13T11:52:03.414Z,12.19
2023-03-13T11:54:50.426Z,12.24
2023-03-13T11:57:31.167Z,12.31
2023-03-13T12:00:21.751Z,12.36
2023-03-13T12:02:57.272Z,12.37
2023-03-13T12:05:30.479Z,12.34
2023-03-13T12:08:09.214Z,12.29
2023-03-13T12:10:46.440Z,12.24
2023-03-13T12:13:21.591Z,12.22
2023-03-13T12:15:53.593Z,12.21
2023-03-13T12:18:28.578Z,12.21
2023-03-13T12:21:04.543Z,12.17
2023-03-13T12:23:47.999Z,12.16
2023-03-13T12:26:21.330Z,12.14
2023-03-13T12:29:07.059Z,12.10
2023-03-13T12:31:43.431Z,12.06
2023-03-13T12:34:19.800Z,12.01
2023-03-13T12:36:55.294Z,11.97
2023-03-13T12:39:35.846Z,11.93
2023-03-13T12:42:24.791Z,11.88
2023-03-13T12:44:56.821Z,11.81
2023-03-13T12:47:35.172Z,11.74
2023-03-13T12:50:27.234Z,11.70
2023-03-13T12:53:19.146Z,11.66
2023-03-13T12:56:16.801Z,11.61
2023-03-13T12:58:52.228Z,11.55
2023-03-13T13:01:34.784Z,11.50
2023-03-13T13:04:09.271Z,11.43
2023-03-13T13:07:04.417Z,11.38
2023-03-13T13:09:36.847Z,11.32
2023-03-13T13:12:22.186Z,11.27
2023-03-13T13:15:13.271Z,11.25
2023-03-13T13:18:09.203Z,11.24
2023-03-13T13:20:46.872Z,11.22
2023-03-13T13:23:39.494Z,11.19
2023-03-13T13:26:47.484Z,11.12
2023-03-13T13:29:56.712Z,11.06
2023-03-13T13:32:48.141Z,11.02
2023-03-13T13:35:34.088Z,10.96
2023-03-13T13:38:36.671Z,10.92
2023-03-13T13:41:28.256Z,10.87
2023-03-13T13:44:27.216Z,10.83
2023-03-13T13:47:02.021Z,10.76
2023-03-13T13:49:54.740Z,10.71
2023-03-13T13:52:42.326Z,10.65
2023-03-13T13:55:44.340Z,10.61
2023-03-13T13:58:21.928Z,10.57
2023-03-13T14:00:56.906Z,10.52
2023-03-13T14:03:29.603Z,10.49
2023-03-13T14:06:04.442Z,10.45
2023-03-13T14:08:39.426Z,10.42
2023-03-13T14:11:24.455Z,10.39
2023-03-13T14:14:16.940Z,10.36
2023-03-13T14:16:50.410Z,10.33
2023-03-13T14:19:30.701Z,10.31
2023-03-13T14:22:04.241Z,10.29
2023-03-13T14:24:36.214Z,10.28
2023-03-13T14:27:17.591Z,10.27
2023-03-13T14:30:05.864Z,10.27
2023-03-13T14:32:36.941Z,10.27
2023-03-13T14:35:10.985Z,10.29
2023-03-13T14:37:45.401Z,10.28
2023-03-13T14:40:25.565Z,10.28
2023-03-13T14:42:58.702Z,10.25
2023-03-13T14:45:32.159Z,10.25
2023-03-13T14:48:06.846Z,10.25
2023-03-13T14:50:37.839Z,10.23
2023-03-13T14:53:18.477Z,10.23
2023-03-13T14:55:50.210Z,10.24
2023-03-13T14:58:30.690Z,10.25
2023-03-13T15:01:13.190Z,10.24
2023-03-13T15:03:47.590Z,10.24
2023-03-13T15:06:23.311Z,10.21
2023-03-13T15:09:15.504Z,10.17
2023-03-13T15:11:59.300Z,10.14
2023-03-13T15:14:39.750Z,10.11
2023-03-13T15:17:20.481Z,10.09
2023-03-13T15:19:57.003Z,10.06
2023-03-13T15:22:33.737Z,10.04
2023-03-13T15:25:06.976Z,10.01
2023-03-13T15:27:38.361Z,10.00
2023-03-13T15:30:13.563Z,9.98
2023-03-13T15:32:46.721Z,10.00
2023-03-13T15:35:30.471Z,9.98
2023-03-13T15:38:02.964Z,9.99
2023-03-13T15:40:34.330Z,10.00
2023-03-13T15:43:05.180Z,9.99
2023-03-13T15:45:37.291Z,10.00
2023-03-13T15:48:16.289Z,10.00
2023-03-13T15:50:47.619Z,10.00
2023-03-13T15:53:24.011Z,10.00
2023-03-13T15:55:58.015Z,9.99
2023-03-13T15:58:30.568Z,9.99
2023-03-13T16:01:01.438Z,9.99
2023-03-13T16:03:32.287Z,9.99
2023-03-13T16:06:03.115Z,10.01
2023-03-13T16:08:36.091Z,10.02
2023-03-13T16:11:08.066Z,10.01
2023-03-13T16:13:38.757Z,10.01
2023-03-13T16:16:22.238Z,10.00
2023-03-13T16:18:53.992Z,10.00
2023-03-13T16:21:27.149Z,9.99
2023-03-13T16:23:58.826Z,9.99
2023-03-13T16:26:32.163Z,10.00
2023-03-13T16:29:04.310Z,10.00
2023-03-13T16:31:36.585Z,10.01
2023-03-13T16:34:08.233Z,10.01
2023-03-13T16:36:39.354Z,10.03
2023-03-13T16:39:14.396Z,10.03
2023-03-13T16:41:45.360Z,10.03
2023-03-13T16:44:16.210Z,10.04
2023-03-13T16:47:04.195Z,10.04
2023-03-13T16:49:35.971Z,10.05
2023-03-13T16:52:07.523Z,10.07
2023-03-13T16:54:38.499Z,10.07
2023-03-13T16:57:12.997Z,10.06
2023-03-13T16:59:44.171Z,10.06
2023-03-13T17:02:19.066Z,10.04
2023-03-13T17:05:16.149Z,10.05
2023-03-13T17:07:49.425Z,10.05
2023-03-13T17:10:23.549Z,10.06
2023-03-13T17:12:54.922Z,10.06
2023-03-13T17:15:27.106Z,10.06
2023-03-13T17:17:58.028Z,10.07
2023-03-13T17:20:30.972Z,10.08
2023-03-13T17:23:02.275Z,10.09
2023-03-13T17:25:33.332Z,10.09
2023-03-13T17:28:04.235Z,10.11
2023-03-13T17:30:36.555Z,10.13
2023-03-13T17:33:07.446Z,10.15
2023-03-13T17:35:38.463Z,10.18
2023-03-13T17:38:10.130Z,10.19
2023-03-13T17:40:41.850Z,10.22
2023-03-13T17:43:13.551Z,10.23
2023-03-13T17:45:44.634Z,10.25
2023-03-13T17:48:16.175Z,10.26
2023-03-13T17:50:47.809Z,10.29
2023-03-13T17:53:18.695Z,10.32
2023-03-13T17:55:49.530Z,10.35
2023-03-13T17:58:20.411Z,10.37
2023-03-13T18:00:51.323Z,10.40
2023-03-13T18:03:23.642Z,10.42
2023-03-13T18:05:56.003Z,10.45
2023-03-13T18:08:26.857Z,10.47
2023-03-13T18:11:01.554Z,10.50
2023-03-13T18:13:32.628Z,10.51
2023-03-13T18:16:03.693Z,10.54
2023-03-13T18:18:36.480Z,10.56
2023-03-13T18:21:10.306Z,10.58
2023-03-13T18:23:41.058Z,10.60
2023-03-13T18:26:31.307Z,10.62
2023-03-13T18:29:03.002Z,10.65
2023-03-13T18:31:36.716Z,10.66
2023-03-13T18:34:07.615Z,10.69
2023-03-13T18:36:39.731Z,10.71
2023-03-13T18:39:20.732Z,10.73
2023-03-13T18:41:54.563Z,10.75
2023-03-13T18:44:25.768Z,10.76
2023-03-13T18:46:56.491Z,10.77
2023-03-13T18:49:27.182Z,10.77
2023-03-13T18:51:57.981Z,10.77
2023-03-13T18:54:29.294Z,10.77
2023-03-13T18:57:11.720Z,10.76
2023-03-13T18:59:42.467Z,10.76
2023-03-13T19:02:18.047Z,10.76
2023-03-13T19:04:49.707Z,10.76
2023-03-13T19:07:25.841Z,10.76
2023-03-13T19:09:57.508Z,10.77
2023-03-13T19:12:29.476Z,10.77
2023-03-13T19:15:00.935Z,10.78
2023-03-13T19:17:32.378Z,10.79
2023-03-13T19:20:04.345Z,10.80
2023-03-13T19:22:35.306Z,10.83
2023-03-13T19:25:07.385Z,10.84
2023-03-13T19:27:40.683Z,10.85
2023-03-13T19:30:18.841Z,10.86
2023-03-13T19:32:50.176Z,10.86
2023-03-13T19:35:22.489Z,10.88
2023-03-13T19:37:53.590Z,10.88
2023-03-13T19:40:28.812Z,10.89
2023-03-13T19:42:59.890Z,10.89
2023-03-13T19:45:30.844Z,10.87
2023-03-13T19:48:02.716Z,10.87
2023-03-13T19:50:33.953Z,10.86
2023-03-13T19:53:05.058Z,10.86
2023-03-13T19:55:36.101Z,10.85
2023-03-13T19:58:07.739Z,10.85
2023-03-13T20:00:38.881Z,10.85
2023-03-13T20:03:10.030Z,10.84
2023-03-13T20:05:40.946Z,10.84
2023-03-13T20:08:12.428Z,10.83
2023-03-13T20:10:43.546Z,10.83
2023-03-13T20:13:14.553Z,10.82
2023-03-13T20:15:45.424Z,10.82
2023-03-13T20:18:16.254Z,10.83
2023-03-13T20:20:47.046Z,10.86
2023-03-13T20:23:17.932Z,10.88
2023-03-13T20:25:48.798Z,10.90
2023-03-13T20:28:36.525Z,10.91
2023-03-13T20:31:08.427Z,10.92
2023-03-13T20:33:40.443Z,10.92
2023-03-13T20:36:16.042Z,10.92
2023-03-13T20:38:47.027Z,10.93
2023-03-13T20:41:21.125Z,10.93
2023-03-13T20:43:52.434Z,10.93
2023-03-13T20:46:24.479Z,10.92
2023-03-13T20:48:56.819Z,10.90
2023-03-13T20:51:29.770Z,10.89
2023-03-13T20:54:00.728Z,10.89
2023-03-13T20:56:31.621Z,10.87
2023-03-13T20:59:02.433Z,10.87
2023-03-13T21:01:33.370Z,10.86
2023-03-13T21:04:04.403Z,10.86
2023-03-13T21:06:35.100Z,10.84
2023-03-13T21:09:06.464Z,10.85
2023-03-13T21:11:37.309Z,10.84
2023-03-13T21:14:08.030Z,10.84
2023-03-13T21:16:38.854Z,10.83
2023-03-13T21:19:09.624Z,10.84
2023-03-13T21:21:40.421Z,10.83
2023-03-13T21:24:12.611Z,10.83
2023-03-13T21:26:43.399Z,10.84
2023-03-13T21:29:14.170Z,10.83
2023-03-13T21:31:44.997Z,10.83
2023-03-13T21:34:15.799Z,10.83
2023-03-13T21:36:46.475Z,10.82
2023-03-13T21:39:17.248Z,10.82
2023-03-13T21:41:48.003Z,10.82
2023-03-13T21:44:19.668Z,10.81
2023-03-13T21:46:51.944Z,10.80
2023-03-13T21:49:23.043Z,10.79
2023-03-13T21:51:56.472Z,10.77
2023-03-13T21:54:27.783Z,10.75
2023-03-13T21:56:58.573Z,10.74
2023-03-13T21:59:30.538Z,10.72
2023-03-13T22:02:01.377Z,10.70
2023-03-13T22:04:32.513Z,10.69
2023-03-13T22:07:03.192Z,10.66
2023-03-13T22:09:34.063Z,10.63
2023-03-13T22:12:04.899Z,10.61
2023-03-13T22:14:35.879Z,10.58
2023-03-13T22:17:06.675Z,10.56
2023-03-13T22:19:37.593Z,10.54
2023-03-13T22:22:08.361Z,10.53
2023-03-13T22:24:39.744Z,10.52
2023-03-13T22:27:11.084Z,10.51
2023-03-13T22:29:42.277Z,10.50
2023-03-13T22:32:13.896Z,10.49
2023-03-13T22:34:47.275Z,10.47
2023-03-13T22:37:21.786Z,10.47
2023-03-13T22:39:54.038Z,10.46
2023-03-13T22:42:26.309Z,10.44
2023-03-13T22:44:57.148Z,10.44
2023-03-13T22:47:28.261Z,10.43
2023-03-13T22:49:59.908Z,10.43
2023-03-13T22:52:32.058Z,10.41
2023-03-13T22:55:02.947Z,10.43
2023-03-13T22:57:34.037Z,10.43
2023-03-13T23:00:10.038Z,10.43
2023-03-13T23:02:40.860Z,10.44
2023-03-13T23:05:13.664Z,10.43
2023-03-13T23:07:44.751Z,10.42
2023-03-13T23:10:15.648Z,10.42
2023-03-13T23:12:46.518Z,10.40
2023-03-13T23:15:17.906Z,10.39
2023-03-13T23:17:48.674Z,10.38
2023-03-13T23:20:19.796Z,10.36
2023-03-13T23:22:50.809Z,10.34
2023-03-13T23:25:23.143Z,10.31
2023-03-13T23:27:53.907Z,10.28
2023-03-13T23:30:24.707Z,10.25
2023-03-13T23:32:55.557Z,10.22
2023-03-13T23:35:26.358Z,10.19
2023-03-13T23:37:57.074Z,10.17
2023-03-13T23:40:28.369Z,10.15
2023-03-13T23:42:59.421Z,10.11
2023-03-13T23:45:30.329Z,10.09
2023-03-13T23:48:01.050Z,10.07
2023-03-13T23:50:32.143Z,10.04
2023-03-13T23:53:02.849Z,10.01
2023-03-13T23:55:34.030Z,9.98
2023-03-13T23:58:04.870Z,9.94
